• Join FlightAware (Why Join?)
  • Login
  • US Flag GB Flag 
11:36 EDT


 

Airport Tracker/Info


-or-


 

Live Flight TrackerFlight Track Log ✈ CNS22 ✈ 15-May-2013 ✈ KTEB - KPSM

Flight Track Log - Related Links

Times and Time Zones

All times are in EDT time to prevent confusion due to time zone crossing. See the CNS22 flight status page for this flight to view local times or setup timezone preferences in your user account.

Time Position Orientation Groundspeed Altitude Reporting Facility
EDT Latitude Longitude Course Direction KTS MPH feet Rate Location/Type
21:33 40.8167 -74.1333 46° Northeast 171 197 1,900  Level New York TRACON
21:34 40.8333 -74.2000 288° West 168 193 3,600 1,680 Climbing New York TRACON
21:35 40.8500 -74.2333 303° West 159 183 5,200 1,200 Climbing New York TRACON
21:36 40.9000 -74.2333 360° North 203 234 6,000 360 Climbing New York TRACON
21:37 40.9667 -74.2167 11° North 242 278 6,000 600 Level New York TRACON
21:38 41.1243 -73.6812 46° Northeast  Level Estimated
21:38 41.0333 -74.1833 21° North 224 258 7,300  Level New York TRACON
21:39 41.0667 -74.1333 49° Northeast 216 249 9,200 1,740 Climbing New York TRACON
21:40 41.1000 -74.0667 56° Northeast 225 259 10,800 1,380 Climbing New York TRACON
21:41 41.1333 -73.9833 62° Northeast 248 285 12,000 1,080 Climbing New York TRACON
21:42 41.1667 -73.9000 62° Northeast 260 299 13,000 240 Climbing New York TRACON
21:50 41.4336 -73.0825 66° East 276 318 14,600 180 Climbing Boston Center
21:51 41.4778 -73.0192 47° Northeast 270 311 15,100 600 Climbing Boston Center
21:52 41.5136 -72.9197 64° Northeast 270 311 15,800 600 Climbing Boston Center
21:53 41.5472 -72.8367 62° Northeast 270 311 16,300 540 Climbing Boston Center
21:54 41.5831 -72.7592 58° Northeast 270 311 16,900 300 Climbing Boston Center
21:55 41.6269 -72.6622 59° Northeast 271 312 17,000  Climbing Boston Center
21:56 41.6708 -72.5594 60° Northeast 276 318 17,000  Level Boston Center
21:57 41.7086 -72.4761 59° Northeast 287 330 17,000  Level Boston Center
21:58 41.7542 -72.3733 59° Northeast 287 330 17,000  Level Boston Center
21:59 41.8000 -72.2758 58° Northeast 299 344 17,000  Level Boston Center
22:00 41.8394 -72.1808 61° Northeast 293 337 17,000  Level Boston Center
22:01 41.8767 -72.0972 59° Northeast 293 337 17,000  Level Boston Center
22:02 41.9222 -71.9908 60° Northeast 293 337 17,000  Level Boston Center
22:03 41.9678 -71.8956 57° Northeast 293 337 17,000  Level Boston Center
22:04 42.0089 -71.8031 59° Northeast 293 337 17,000  Level Boston Center
22:05 42.0378 -71.7356 60° Northeast 293 337 17,000  Level Boston Center
22:06 42.0911 -71.6092 60° Northeast 293 337 17,000  Level Boston Center
22:07 42.1319 -71.5133 60° Northeast 293 337 17,000  Level Boston Center
22:08 42.1708 -71.4261 59° Northeast 293 337 17,000  Level Boston Center
22:09 42.2178 -71.3189 59° Northeast 293 337 17,000  Level Boston Center
22:10 42.2522 -71.2311 62° Northeast 299 344 17,000 -60 Level Boston Center
22:11 42.2989 -71.1236 60° Northeast 299 344 16,900 -300 Descending Boston Center
22:12 42.3436 -71.0272 58° Northeast 299 344 16,400 -540 Descending Boston Center
22:13 42.4092 -70.9244 49° Northeast 305 351 15,800 -540 Descending Boston Center
22:14 42.4664 -70.8528 43° Northeast 300 345 15,300 -420 Descending Boston Center
22:15 42.5442 -70.7519 44° Northeast 295 339 15,000 -240 Descending Boston Center
22:16 42.6014 -70.6772 44° Northeast 289 333 14,900 -780 Descending Boston Center
22:18 42.6503 -70.6081 46° Northeast 289 333 13,300 -1,800 Descending Boston Center
22:19 42.7244 -70.5550 28° Northeast 252 290 11,000 -1,500 Descending Boston Center
22:20 42.7714 -70.6131 318° Northwest 194 223 10,300 -960 Descending Boston Center
22:21 42.8139 -70.6683 316° Northwest 206 237 9,100 -1,200 Descending Boston Center
22:22 42.8522 -70.7181 316° Northwest 201 231 7,900 -1,200 Descending Boston Center
22:23 42.8925 -70.7681 318° Northwest 195 224 6,700 -1,200 Descending Boston Center
22:23 42.9000 -70.7833 304° West 190 219 6,300 -1,260 Descending KA90
22:24 42.9500 -70.8333 324° Northwest 188 216 4,900 -1,140 Descending KA90
22:25 42.9833 -70.8833 312° West 209 241 4,000 -480 Descending KA90
22:26 43.0333 -70.9333 324° Northwest 210 242 4,000 -480 Level KA90
22:27 43.1000 -70.9833 331° Northwest 230 265 3,000 -480 Descending KA90
22:28 43.1500 -71.0167 334° Northwest 213 245 3,000  Level KA90
22:29 43.2000 -71.0167 360° North 220 253 3,000 -180 Level KA90
22:30 43.2167 -70.9500 71° East 226 260 2,700 -540 Descending KA90
22:31 43.1833 -70.9000 132° Southeast 170 196 2,000 -720 Descending KA90
22:32 43.1333 -70.8667 154° Southeast 158 182 1,300 -660 Descending KA90
22:33 43.1167 -70.8500 144° Southeast 117 135 700 -660 Descending KA90
22:35 43.0779 -70.8233 120° Southeast  Level Estimated
22:42 43.0779 -70.8233 120° Southeast  Level Estimated